METAR Data
IDs: Format: Raw Decoded Include TAF

Data at: 0209 UTC 20 Jan 2022

LIRN 200150Z VRB01KT 9999 SCT030 09/03 Q1026 NOSIG